ADDS METAR Data INFO
IDs: Format: Raw Decoded Include TAF

Data at: 2208 UTC 24 Jun 2018

KBDN 242155Z AUTO VRB06KT 10SM CLR 33/M00 A2994 RMK AO2
KBDN 242135Z AUTO VRB06G12KT 10SM CLR 32/M00 A2995 RMK AO2
KBDN 242115Z AUTO 00000KT 10SM CLR 32/M00 A2996 RMK AO2
KBDN 242055Z AUTO VRB03KT 10SM CLR 31/M00 A2997 RMK AO2
KBDN 242035Z AUTO VRB04KT 10SM CLR 31/M00 A2998 RMK AO2
KBDN 242015Z AUTO 00000KT 10SM CLR 30/00 A2999 RMK AO2
KBDN 241955Z AUTO VRB04KT 10SM CLR 29/00 A3000 RMK AO2
KBDN 241935Z AUTO 16006KT 10SM CLR 29/00 A3001 RMK AO2
KBDN 241915Z AUTO 00000KT 9SM CLR 28/01 A3002 RMK AO2
KBDN 241855Z AUTO 10009KT 10SM CLR 28/01 A3003 RMK AO2
KBDN 241835Z AUTO VRB05G11KT 10SM CLR 27/02 A3003 RMK AO2
KBDN 241815Z AUTO VRB03G12KT 10SM CLR 26/02 A3004 RMK AO2
KBDN 241755Z AUTO 14009KT 10SM CLR 26/02 A3004 RMK AO2
KBDN 241735Z AUTO 00000KT 10SM CLR 25/03 A3005 RMK AO2
KBDN 241715Z AUTO 00000KT 10SM CLR 24/03 A3007 RMK AO2
KBDN 241655Z AUTO VRB03KT 9SM CLR 23/05 A3008 RMK AO2
KBDN 241635Z AUTO 00000KT 10SM CLR 22/04 A3008 RMK AO2
KBDN 241615Z AUTO 00000KT 10SM CLR 22/05 A3008 RMK AO2
KBDN 241555Z AUTO 00000KT 10SM CLR 20/06 A3009 RMK AO2
KBDN 241535Z AUTO 00000KT 10SM CLR 20/05 A3010 RMK AO2
KBDN 241515Z AUTO 12004KT 10SM CLR 18/05 A3010 RMK AO2
KBDN 241455Z AUTO 19003KT 10SM CLR 17/06 A3010 RMK AO2
KBDN 241435Z AUTO 21004KT 10SM CLR 15/06 A3011 RMK AO2
KBDN 241415Z AUTO 00000KT 8SM CLR 13/05 A3011 RMK AO2
KBDN 241355Z AUTO 13003KT 9SM CLR 12/05 A3011 RMK AO2
KBDN 241335Z AUTO 18003KT 10SM CLR 11/05 A3011 RMK AO2
KBDN 241315Z AUTO 15004KT 10SM CLR 10/05 A3011 RMK AO2
KBDN 241255Z AUTO 21005KT 10SM CLR 10/05 A3012 RMK AO2
KBDN 241235Z AUTO 17003KT 10SM CLR 10/05 A3012 RMK AO2
KBDN 241215Z AUTO 21006KT 10SM CLR 10/05 A3011 RMK AO2
KBDN 241155Z AUTO 19004KT 10SM CLR 10/05 A3011 RMK AO2
KBDN 241135Z AUTO 20003KT 10SM CLR 10/05 A3011 RMK AO2
KBDN 241115Z AUTO 20004KT 10SM CLR 10/05 A3011 RMK AO2
KBDN 241055Z AUTO 20005KT 10SM CLR 10/05 A3011 RMK AO2
KBDN 241035Z AUTO 00000KT 10SM CLR 11/05 A3012 RMK AO2
KBDN 241015Z AUTO 21004KT 10SM CLR 11/05 A3012 RMK AO2
KBDN 240955Z AUTO 00000KT 10SM CLR 11/05 A3012 RMK AO2
KBDN 240935Z AUTO 00000KT 10SM CLR 11/05 A3012 RMK AO2
KBDN 240915Z AUTO 20005KT 10SM CLR 12/05 A3012 RMK AO2
KBDN 240855Z AUTO 20003KT 10SM CLR 12/05 A3012 RMK AO2
KBDN 240835Z AUTO 19004KT 10SM CLR 12/06 A3012 RMK AO2
KBDN 240815Z AUTO 19005KT 10SM CLR 12/06 A3013 RMK AO2
KBDN 240755Z AUTO 00000KT 10SM CLR 13/06 A3013 RMK AO2
KBDN 240735Z AUTO 00000KT 10SM CLR 13/06 A3013 RMK AO2
KBDN 240715Z AUTO 00000KT 10SM CLR 14/07 A3013 RMK AO2
KBDN 240655Z AUTO 23003KT 10SM CLR 14/07 A3013 RMK AO2
KBDN 240635Z AUTO 00000KT 10SM CLR 15/06 A3013 RMK AO2
KBDN 240615Z AUTO 00000KT 10SM CLR 15/06 A3012 RMK AO2
KBDN 240555Z AUTO 34003KT 10SM CLR 16/05 A3013 RMK AO2 LTG DSNT E
KBDN 240535Z AUTO 00000KT 10SM CLR 16/05 A3013 RMK AO2
KBDN 240515Z AUTO 00000KT 10SM CLR 17/04 A3012 RMK AO2
KBDN 240455Z AUTO 33003KT 10SM CLR 18/04 A3012 RMK AO2
KBDN 240435Z AUTO 33004KT 10SM CLR 18/04 A3011 RMK AO2
KBDN 240415Z AUTO 34003KT 10SM CLR 19/04 A3011 RMK AO2
KBDN 240355Z AUTO 00000KT 10SM CLR 20/04 A3010 RMK AO2
KBDN 240335Z AUTO 01004KT 10SM CLR 22/04 A3010 RMK AO2
KBDN 240315Z AUTO 36008KT 10SM CLR 22/04 A3009 RMK AO2
KBDN 240255Z AUTO 36009G14KT 10SM CLR 23/04 A3009 RMK AO2
KBDN 240235Z AUTO 35009KT 10SM CLR 23/04 A3009 RMK AO2
KBDN 240215Z AUTO 36009KT 10SM CLR 24/04 A3008 RMK AO2
KBDN 240155Z AUTO 36007G15KT 10SM CLR 24/04 A3008 RMK AO2
KBDN 240135Z AUTO 01010KT 10SM CLR 24/04 A3008 RMK AO2
KBDN 240115Z AUTO 36012KT 10SM CLR 25/04 A3008 RMK AO2
KBDN 240055Z AUTO 36010G16KT 10SM CLR 25/04 A3009 RMK AO2
KBDN 240035Z AUTO 35008KT 330V030 10SM CLR 25/04 A3009 RMK AO2
KBDN 240015Z AUTO 33010KT 10SM CLR 25/04 A3009 RMK AO2
KBDN 232355Z AUTO 35010KT 10SM CLR 25/05 A3009 RMK AO2
KBDN 232335Z AUTO 34011G16KT 10SM CLR 25/05 A3009 RMK AO2
KBDN 232315Z AUTO VRB07G18KT 310V030 10SM CLR 25/05 A3009 RMK AO2
KBDN 232255Z AUTO 36013KT 10SM CLR 25/04 A3010 RMK AO2
KBDN 232235Z AUTO 34010G16KT 10SM CLR 25/04 A3010 RMK AO2
KBDN 232215Z AUTO 34009G14KT 310V010 10SM CLR 25/05 A3009 RMK AO2
KBDN 232155Z AUTO 01010G15KT 10SM CLR 25/05 A3010 RMK AO2
KBDN 232135Z AUTO 34009G17KT 310V010 10SM CLR 25/05 A3010 RMK AO2
KBDN 232115Z AUTO VRB05G12KT 10SM CLR 25/04 A3010 RMK AO2
KBDN 232055Z AUTO 35008G26KT 310V020 9SM FEW065 25/04 A3009 RMK AO2
KBDN 232035Z AUTO 28009KT 10SM CLR 24/04 A3009 RMK AO2
KBDN 232015Z AUTO 31007G14KT 270V360 10SM CLR 23/04 A3010 RMK AO2
KBDN 231955Z AUTO 30008G15KT 260V340 10SM CLR 23/03 A3010 RMK AO2
KBDN 231935Z AUTO VRB05G13KT 10SM CLR 22/03 A3011 RMK AO2
KBDN 231915Z AUTO 26010G15KT 10SM CLR 21/03 A3010 RMK AO2
KBDN 231855Z AUTO 29009KT 10SM CLR 21/03 A3011 RMK AO2
KBDN 231835Z AUTO VRB05G14KT 10SM CLR 21/03 A3012 RMK AO2
KBDN 231815Z AUTO 32010KT 10SM CLR 21/03 A3012 RMK AO2
KBDN 231755Z AUTO 29007G14KT 250V310 10SM CLR 20/04 A3011 RMK AO2
KBDN 231735Z AUTO 00000G10KT 10SM CLR 20/05 A3012 RMK AO2
KBDN 231715Z AUTO 31008KT 10SM CLR 19/05 A3012 RMK AO2
KBDN 231655Z AUTO 32007KT 10SM CLR 19/05 A3013 RMK AO2
KBDN 231635Z AUTO 8/29166708KT 10SM CLR 18/05 A3013 RMK AO2
KBDN 231615Z AUTO 32008KT 10SM CLR 18/05 A3013 RMK AO2
KBDN 231555Z AUTO 34007KT 10SM CLR 17/05 A3013 RMK AO2
KBDN 231535Z AUTO 31006G12KT 10SM CLR 17/06 A3013 RMK AO2
KBDN 231515Z AUTO VRB05KT 10SM FEW032 16/06 A3013 RMK AO2
KBDN 231455Z AUTO VRB04KT 10SM CLR 15/06 A3013 RMK AO2
KBDN 231435Z AUTO 00000KT 10SM CLR 15/07 A3012 RMK AO2
KBDN 231415Z AUTO 22004KT 10SM CLR 14/07 A3013 RMK AO2
KBDN 231355Z AUTO 24005KT 10SM CLR 13/07 A3012 RMK AO2
KBDN 231335Z AUTO 23005KT 10SM CLR 12/06 A3012 RMK AO2
KBDN 231315Z AUTO 22006KT 10SM CLR 11/06 A3012 RMK AO2
KBDN 231255Z AUTO 23006KT 10SM CLR 09/06 A3012 RMK AO2
KBDN 231235Z AUTO 21007KT 10SM CLR 08/05 A3012 RMK AO2
KBDN 231215Z AUTO 17003KT 10SM CLR 08/05 A3012 RMK AO2
KBDN 231155Z AUTO 22005KT 10SM CLR 09/06 A3012 RMK AO2
KBDN 231135Z AUTO 27004KT 10SM CLR 09/05 A3012 RMK AO2
KBDN 231115Z AUTO 00000KT 10SM CLR 09/06 A3011 RMK AO2
KBDN 231055Z AUTO 00000KT 10SM CLR 10/06 A3011 RMK AO2
KBDN 231035Z AUTO 22003KT 10SM CLR 10/06 A3012 RMK AO2
KBDN 231015Z AUTO 24003KT 10SM CLR 10/06 A3012 RMK AO2